sensor_id;sensor_type;location;lat;lon;timestamp;temperature;humidity
15554;DHT22;7878;44.632;10.942;2023-05-07T00:01:16;21.50;93.10
15554;DHT22;7878;44.632;10.942;2023-05-07T00:03:42;21.50;93.40
15554;DHT22;7878;44.632;10.942;2023-05-07T00:06:08;21.50;93.50
15554;DHT22;7878;44.632;10.942;2023-05-07T00:08:33;21.50;93.40
15554;DHT22;7878;44.632;10.942;2023-05-07T00:10:59;21.40;93.40
15554;DHT22;7878;44.632;10.942;2023-05-07T00:13:25;21.40;93.60
15554;DHT22;7878;44.632;10.942;2023-05-07T00:15:50;21.40;93.70
15554;DHT22;7878;44.632;10.942;2023-05-07T00:18:16;21.30;93.50
15554;DHT22;7878;44.632;10.942;2023-05-07T00:20:41;21.30;93.40
15554;DHT22;7878;44.632;10.942;2023-05-07T00:23:07;21.30;93.30
15554;DHT22;7878;44.632;10.942;2023-05-07T00:25:33;21.30;93.70
15554;DHT22;7878;44.632;10.942;2023-05-07T00:27:58;21.30;93.70
15554;DHT22;7878;44.632;10.942;2023-05-07T00:30:29;21.30;93.50
15554;DHT22;7878;44.632;10.942;2023-05-07T00:32:54;21.30;93.70
15554;DHT22;7878;44.632;10.942;2023-05-07T00:35:20;21.30;93.80
15554;DHT22;7878;44.632;10.942;2023-05-07T00:37:46;21.20;94.00
15554;DHT22;7878;44.632;10.942;2023-05-07T00:40:11;21.20;94.00
15554;DHT22;7878;44.632;10.942;2023-05-07T00:42:38;21.10;94.10
15554;DHT22;7878;44.632;10.942;2023-05-07T00:45:04;21.10;94.00
15554;DHT22;7878;44.632;10.942;2023-05-07T00:47:30;21.20;94.10
15554;DHT22;7878;44.632;10.942;2023-05-07T00:49:57;21.20;93.90
15554;DHT22;7878;44.632;10.942;2023-05-07T00:52:25;21.20;94.00
15554;DHT22;7878;44.632;10.942;2023-05-07T00:54:51;21.20;94.20
15554;DHT22;7878;44.632;10.942;2023-05-07T00:57:17;21.10;94.10
15554;DHT22;7878;44.632;10.942;2023-05-07T00:59:44;21.10;94.30
15554;DHT22;7878;44.632;10.942;2023-05-07T01:02:10;21.10;94.30
15554;DHT22;7878;44.632;10.942;2023-05-07T01:04:35;21.10;94.60
15554;DHT22;7878;44.632;10.942;2023-05-07T01:07:02;21.00;94.40
15554;DHT22;7878;44.632;10.942;2023-05-07T01:09:29;20.90;94.20
15554;DHT22;7878;44.632;10.942;2023-05-07T01:11:55;20.90;94.40
15554;DHT22;7878;44.632;10.942;2023-05-07T01:14:23;21.00;94.40
15554;DHT22;7878;44.632;10.942;2023-05-07T01:16:49;21.00;94.40
15554;DHT22;7878;44.632;10.942;2023-05-07T01:19:18;21.00;94.20
15554;DHT22;7878;44.632;10.942;2023-05-07T01:21:46;21.00;94.60
15554;DHT22;7878;44.632;10.942;2023-05-07T01:24:13;20.90;94.50
15554;DHT22;7878;44.632;10.942;2023-05-07T01:26:41;20.80;94.20
15554;DHT22;7878;44.632;10.942;2023-05-07T01:29:07;20.80;94.40
15554;DHT22;7878;44.632;10.942;2023-05-07T01:31:34;20.80;94.40
15554;DHT22;7878;44.632;10.942;2023-05-07T01:34:01;20.80;94.20
15554;DHT22;7878;44.632;10.942;2023-05-07T01:36:29;20.80;94.30
15554;DHT22;7878;44.632;10.942;2023-05-07T01:38:55;20.70;94.30
15554;DHT22;7878;44.632;10.942;2023-05-07T01:41:23;20.70;94.20
15554;DHT22;7878;44.632;10.942;2023-05-07T01:43:50;20.80;94.10
15554;DHT22;7878;44.632;10.942;2023-05-07T01:46:17;20.70;94.00
15554;DHT22;7878;44.632;10.942;2023-05-07T01:48:44;20.70;93.90
15554;DHT22;7878;44.632;10.942;2023-05-07T01:51:11;20.80;93.90
15554;DHT22;7878;44.632;10.942;2023-05-07T01:53:40;20.70;93.70
15554;DHT22;7878;44.632;10.942;2023-05-07T01:56:06;20.70;93.60
15554;DHT22;7878;44.632;10.942;2023-05-07T01:58:32;20.70;93.40
15554;DHT22;7878;44.632;10.942;2023-05-07T02:00:58;20.60;93.20
15554;DHT22;7878;44.632;10.942;2023-05-07T02:03:24;20.60;93.20
15554;DHT22;7878;44.632;10.942;2023-05-07T02:05:49;20.50;93.10
15554;DHT22;7878;44.632;10.942;2023-05-07T02:08:15;20.50;93.20
15554;DHT22;7878;44.632;10.942;2023-05-07T02:10:41;20.50;93.10
15554;DHT22;7878;44.632;10.942;2023-05-07T02:13:06;20.40;93.10
15554;DHT22;7878;44.632;10.942;2023-05-07T02:15:32;20.40;93.10
15554;DHT22;7878;44.632;10.942;2023-05-07T02:18:05;20.40;93.10
15554;DHT22;7878;44.632;10.942;2023-05-07T02:20:32;20.30;93.40
15554;DHT22;7878;44.632;10.942;2023-05-07T02:22:57;20.30;93.20
15554;DHT22;7878;44.632;10.942;2023-05-07T02:25:23;20.30;93.10
15554;DHT22;7878;44.632;10.942;2023-05-07T02:27:49;20.30;93.20
15554;DHT22;7878;44.632;10.942;2023-05-07T02:30:14;20.20;93.00
15554;DHT22;7878;44.632;10.942;2023-05-07T02:32:40;20.20;93.20
15554;DHT22;7878;44.632;10.942;2023-05-07T02:35:06;20.20;93.20
15554;DHT22;7878;44.632;10.942;2023-05-07T02:37:32;20.20;93.40
15554;DHT22;7878;44.632;10.942;2023-05-07T02:39:58;20.20;93.40
15554;DHT22;7878;44.632;10.942;2023-05-07T02:42:23;20.10;93.20
15554;DHT22;7878;44.632;10.942;2023-05-07T02:44:49;20.10;93.40
15554;DHT22;7878;44.632;10.942;2023-05-07T02:47:15;20.10;93.20
15554;DHT22;7878;44.632;10.942;2023-05-07T02:49:41;20.10;93.30
15554;DHT22;7878;44.632;10.942;2023-05-07T02:52:07;20.10;93.30
15554;DHT22;7878;44.632;10.942;2023-05-07T02:54:33;20.10;93.30
15554;DHT22;7878;44.632;10.942;2023-05-07T02:56:58;20.10;93.30
15554;DHT22;7878;44.632;10.942;2023-05-07T02:59:26;20.10;93.30
15554;DHT22;7878;44.632;10.942;2023-05-07T03:01:51;20.00;93.40
15554;DHT22;7878;44.632;10.942;2023-05-07T03:04:17;20.10;93.40
15554;DHT22;7878;44.632;10.942;2023-05-07T03:06:43;20.00;93.60
15554;DHT22;7878;44.632;10.942;2023-05-07T03:09:09;20.10;93.30
15554;DHT22;7878;44.632;10.942;2023-05-07T03:11:34;20.10;93.30
15554;DHT22;7878;44.632;10.942;2023-05-07T03:14:01;20.10;93.30
15554;DHT22;7878;44.632;10.942;2023-05-07T03:16:27;20.10;93.20
15554;DHT22;7878;44.632;10.942;2023-05-07T03:18:52;20.10;93.30
15554;DHT22;7878;44.632;10.942;2023-05-07T03:21:18;20.10;93.30
15554;DHT22;7878;44.632;10.942;2023-05-07T03:23:44;20.00;93.30
15554;DHT22;7878;44.632;10.942;2023-05-07T03:26:09;20.00;93.30
15554;DHT22;7878;44.632;10.942;2023-05-07T03:28:35;20.00;93.30
15554;DHT22;7878;44.632;10.942;2023-05-07T03:31:01;20.00;93.40
15554;DHT22;7878;44.632;10.942;2023-05-07T03:33:26;20.00;93.20
15554;DHT22;7878;44.632;10.942;2023-05-07T03:35:53;20.10;93.30
15554;DHT22;7878;44.632;10.942;2023-05-07T03:38:18;20.00;93.30
15554;DHT22;7878;44.632;10.942;2023-05-07T03:40:44;20.00;93.30
15554;DHT22;7878;44.632;10.942;2023-05-07T03:43:10;19.90;93.30
15554;DHT22;7878;44.632;10.942;2023-05-07T03:45:35;19.90;93.60
15554;DHT22;7878;44.632;10.942;2023-05-07T03:48:01;19.80;93.40
15554;DHT22;7878;44.632;10.942;2023-05-07T03:50:27;19.90;93.60
15554;DHT22;7878;44.632;10.942;2023-05-07T03:52:52;19.80;93.50
15554;DHT22;7878;44.632;10.942;2023-05-07T03:55:18;19.80;93.50
15554;DHT22;7878;44.632;10.942;2023-05-07T03:57:44;19.80;93.70
15554;DHT22;7878;44.632;10.942;2023-05-07T04:00:10;19.80;93.70
15554;DHT22;7878;44.632;10.942;2023-05-07T04:02:36;19.80;93.80
15554;DHT22;7878;44.632;10.942;2023-05-07T04:05:01;19.80;93.70
15554;DHT22;7878;44.632;10.942;2023-05-07T04:07:27;19.80;93.90
15554;DHT22;7878;44.632;10.942;2023-05-07T04:09:52;19.80;93.90
15554;DHT22;7878;44.632;10.942;2023-05-07T04:12:18;19.80;93.90
15554;DHT22;7878;44.632;10.942;2023-05-07T04:14:44;19.90;93.90
15554;DHT22;7878;44.632;10.942;2023-05-07T04:17:10;19.80;93.70
15554;DHT22;7878;44.632;10.942;2023-05-07T04:19:36;19.80;93.90
15554;DHT22;7878;44.632;10.942;2023-05-07T04:22:01;19.80;93.90
15554;DHT22;7878;44.632;10.942;2023-05-07T04:24:27;19.80;94.00
15554;DHT22;7878;44.632;10.942;2023-05-07T04:26:53;19.80;94.00
15554;DHT22;7878;44.632;10.942;2023-05-07T04:29:20;19.80;94.10
15554;DHT22;7878;44.632;10.942;2023-05-07T04:31:46;19.70;94.20
15554;DHT22;7878;44.632;10.942;2023-05-07T04:34:12;19.70;94.10
15554;DHT22;7878;44.632;10.942;2023-05-07T04:36:38;19.80;94.20
15554;DHT22;7878;44.632;10.942;2023-05-07T04:39:04;19.80;94.10
15554;DHT22;7878;44.632;10.942;2023-05-07T04:41:30;19.70;94.20
15554;DHT22;7878;44.632;10.942;2023-05-07T04:43:55;19.70;94.20
15554;DHT22;7878;44.632;10.942;2023-05-07T04:46:22;19.70;94.20
15554;DHT22;7878;44.632;10.942;2023-05-07T04:48:47;19.80;94.20
15554;DHT22;7878;44.632;10.942;2023-05-07T04:51:13;19.70;94.30
15554;DHT22;7878;44.632;10.942;2023-05-07T04:53:39;19.70;94.20
15554;DHT22;7878;44.632;10.942;2023-05-07T04:56:05;19.70;94.40
15554;DHT22;7878;44.632;10.942;2023-05-07T04:58:31;19.70;94.20
15554;DHT22;7878;44.632;10.942;2023-05-07T05:00:57;19.70;94.40
15554;DHT22;7878;44.632;10.942;2023-05-07T05:03:23;19.70;94.60
15554;DHT22;7878;44.632;10.942;2023-05-07T05:05:50;19.70;94.50
15554;DHT22;7878;44.632;10.942;2023-05-07T05:08:15;19.70;94.40
15554;DHT22;7878;44.632;10.942;2023-05-07T05:10:42;19.80;94.50
15554;DHT22;7878;44.632;10.942;2023-05-07T05:13:09;19.80;94.50
15554;DHT22;7878;44.632;10.942;2023-05-07T05:15:35;19.80;94.70
15554;DHT22;7878;44.632;10.942;2023-05-07T05:18:00;19.80;94.60
15554;DHT22;7878;44.632;10.942;2023-05-07T05:20:26;19.80;94.70
15554;DHT22;7878;44.632;10.942;2023-05-07T05:22:52;19.80;94.70
15554;DHT22;7878;44.632;10.942;2023-05-07T05:25:17;19.80;94.70
15554;DHT22;7878;44.632;10.942;2023-05-07T05:27:43;19.80;94.70
15554;DHT22;7878;44.632;10.942;2023-05-07T05:30:09;19.90;94.70
15554;DHT22;7878;44.632;10.942;2023-05-07T05:32:35;19.90;94.70
15554;DHT22;7878;44.632;10.942;2023-05-07T05:35:00;20.00;94.80
15554;DHT22;7878;44.632;10.942;2023-05-07T05:37:26;20.00;94.80
15554;DHT22;7878;44.632;10.942;2023-05-07T05:39:52;20.00;94.70
15554;DHT22;7878;44.632;10.942;2023-05-07T05:42:20;20.10;94.70
15554;DHT22;7878;44.632;10.942;2023-05-07T05:44:45;20.10;94.70
15554;DHT22;7878;44.632;10.942;2023-05-07T05:47:11;20.10;94.80
15554;DHT22;7878;44.632;10.942;2023-05-07T05:49:37;20.20;94.70
15554;DHT22;7878;44.632;10.942;2023-05-07T05:52:02;20.20;94.60
15554;DHT22;7878;44.632;10.942;2023-05-07T05:54:28;20.30;94.60
15554;DHT22;7878;44.632;10.942;2023-05-07T05:56:54;20.30;94.60
15554;DHT22;7878;44.632;10.942;2023-05-07T05:59:20;20.40;94.50
15554;DHT22;7878;44.632;10.942;2023-05-07T06:01:46;20.50;94.40
15554;DHT22;7878;44.632;10.942;2023-05-07T06:04:11;20.60;94.30
15554;DHT22;7878;44.632;10.942;2023-05-07T06:06:37;20.80;94.30
15554;DHT22;7878;44.632;10.942;2023-05-07T06:09:03;20.90;94.20
15554;DHT22;7878;44.632;10.942;2023-05-07T06:11:29;21.10;94.20
15554;DHT22;7878;44.632;10.942;2023-05-07T06:13:54;21.30;94.10
15554;DHT22;7878;44.632;10.942;2023-05-07T06:16:20;21.40;94.00
15554;DHT22;7878;44.632;10.942;2023-05-07T06:18:46;21.40;93.90
15554;DHT22;7878;44.632;10.942;2023-05-07T06:21:13;21.40;93.60
15554;DHT22;7878;44.632;10.942;2023-05-07T06:23:38;21.50;93.60
15554;DHT22;7878;44.632;10.942;2023-05-07T06:26:06;21.60;93.60
15554;DHT22;7878;44.632;10.942;2023-05-07T06:28:32;21.60;93.30
15554;DHT22;7878;44.632;10.942;2023-05-07T06:31:16;21.60;93.20
15554;DHT22;7878;44.632;10.942;2023-05-07T06:33:43;21.70;93.10
15554;DHT22;7878;44.632;10.942;2023-05-07T06:36:10;21.70;93.00
15554;DHT22;7878;44.632;10.942;2023-05-07T06:38:36;21.80;92.90
15554;DHT22;7878;44.632;10.942;2023-05-07T06:41:01;21.80;92.80
15554;DHT22;7878;44.632;10.942;2023-05-07T06:43:27;21.80;92.80
15554;DHT22;7878;44.632;10.942;2023-05-07T06:45:53;21.80;92.80
15554;DHT22;7878;44.632;10.942;2023-05-07T06:48:18;21.90;92.70
15554;DHT22;7878;44.632;10.942;2023-05-07T06:50:44;21.80;92.50
15554;DHT22;7878;44.632;10.942;2023-05-07T06:53:10;21.80;92.60
15554;DHT22;7878;44.632;10.942;2023-05-07T06:55:39;21.80;92.60
15554;DHT22;7878;44.632;10.942;2023-05-07T06:58:04;21.80;92.50
15554;DHT22;7878;44.632;10.942;2023-05-07T07:00:31;21.80;92.60
15554;DHT22;7878;44.632;10.942;2023-05-07T07:02:57;21.80;92.60
15554;DHT22;7878;44.632;10.942;2023-05-07T07:05:22;21.80;92.40
15554;DHT22;7878;44.632;10.942;2023-05-07T07:07:48;21.80;92.50
15554;DHT22;7878;44.632;10.942;2023-05-07T07:10:20;21.90;92.50
15554;DHT22;7878;44.632;10.942;2023-05-07T07:12:46;22.00;92.60
15554;DHT22;7878;44.632;10.942;2023-05-07T07:15:13;22.00;92.60
15554;DHT22;7878;44.632;10.942;2023-05-07T07:17:38;22.10;92.50
15554;DHT22;7878;44.632;10.942;2023-05-07T07:20:05;22.10;92.60
15554;DHT22;7878;44.632;10.942;2023-05-07T07:22:30;22.10;92.80
15554;DHT22;7878;44.632;10.942;2023-05-07T07:24:56;22.20;92.80
15554;DHT22;7878;44.632;10.942;2023-05-07T07:27:22;22.20;92.50
15554;DHT22;7878;44.632;10.942;2023-05-07T07:29:47;22.20;92.50
15554;DHT22;7878;44.632;10.942;2023-05-07T07:32:13;22.20;92.60
15554;DHT22;7878;44.632;10.942;2023-05-07T07:34:39;22.20;92.60
15554;DHT22;7878;44.632;10.942;2023-05-07T07:37:05;22.30;92.60
15554;DHT22;7878;44.632;10.942;2023-05-07T07:39:32;22.40;92.60
15554;DHT22;7878;44.632;10.942;2023-05-07T07:41:58;22.40;92.60
15554;DHT22;7878;44.632;10.942;2023-05-07T07:44:24;22.50;92.60
15554;DHT22;7878;44.632;10.942;2023-05-07T07:46:50;22.50;92.40
15554;DHT22;7878;44.632;10.942;2023-05-07T07:49:16;22.50;92.50
15554;DHT22;7878;44.632;10.942;2023-05-07T07:51:42;22.60;92.50
15554;DHT22;7878;44.632;10.942;2023-05-07T07:54:07;22.70;92.40
15554;DHT22;7878;44.632;10.942;2023-05-07T07:56:33;22.80;92.30
15554;DHT22;7878;44.632;10.942;2023-05-07T07:59:00;22.70;92.30
15554;DHT22;7878;44.632;10.942;2023-05-07T08:01:25;22.80;92.30
15554;DHT22;7878;44.632;10.942;2023-05-07T08:03:52;22.80;92.30
15554;DHT22;7878;44.632;10.942;2023-05-07T08:06:18;22.90;92.30
15554;DHT22;7878;44.632;10.942;2023-05-07T08:08:44;22.90;92.20
15554;DHT22;7878;44.632;10.942;2023-05-07T08:11:10;22.90;92.20
15554;DHT22;7878;44.632;10.942;2023-05-07T08:13:36;23.00;92.40
15554;DHT22;7878;44.632;10.942;2023-05-07T08:16:03;23.00;92.30
15554;DHT22;7878;44.632;10.942;2023-05-07T08:18:29;23.10;92.30
15554;DHT22;7878;44.632;10.942;2023-05-07T08:20:55;23.10;92.00
15554;DHT22;7878;44.632;10.942;2023-05-07T08:23:21;23.10;92.10
15554;DHT22;7878;44.632;10.942;2023-05-07T08:25:48;23.20;92.00
15554;DHT22;7878;44.632;10.942;2023-05-07T08:28:13;23.30;92.20
15554;DHT22;7878;44.632;10.942;2023-05-07T08:30:39;23.30;92.10
15554;DHT22;7878;44.632;10.942;2023-05-07T08:33:04;23.40;92.20
15554;DHT22;7878;44.632;10.942;2023-05-07T08:35:30;23.40;92.00
15554;DHT22;7878;44.632;10.942;2023-05-07T08:37:56;23.40;92.10
15554;DHT22;7878;44.632;10.942;2023-05-07T08:40:25;23.40;92.20
15554;DHT22;7878;44.632;10.942;2023-05-07T08:42:53;23.50;92.20
15554;DHT22;7878;44.632;10.942;2023-05-07T08:45:19;23.50;92.10
15554;DHT22;7878;44.632;10.942;2023-05-07T08:47:55;23.60;92.00
15554;DHT22;7878;44.632;10.942;2023-05-07T08:50:23;23.70;91.90
15554;DHT22;7878;44.632;10.942;2023-05-07T08:52:48;23.70;91.90
15554;DHT22;7878;44.632;10.942;2023-05-07T08:55:15;23.80;92.10
15554;DHT22;7878;44.632;10.942;2023-05-07T08:57:40;23.80;92.10
15554;DHT22;7878;44.632;10.942;2023-05-07T09:00:06;23.90;92.10
15554;DHT22;7878;44.632;10.942;2023-05-07T09:02:33;23.90;92.10
15554;DHT22;7878;44.632;10.942;2023-05-07T09:05:00;24.00;92.30
15554;DHT22;7878;44.632;10.942;2023-05-07T09:07:26;24.00;92.10
15554;DHT22;7878;44.632;10.942;2023-05-07T09:09:52;24.10;92.10
15554;DHT22;7878;44.632;10.942;2023-05-07T09:12:21;24.10;92.00
15554;DHT22;7878;44.632;10.942;2023-05-07T09:14:47;24.20;91.90
15554;DHT22;7878;44.632;10.942;2023-05-07T09:17:13;24.20;91.90
15554;DHT22;7878;44.632;10.942;2023-05-07T09:19:39;24.30;91.40
15554;DHT22;7878;44.632;10.942;2023-05-07T09:22:05;24.30;91.60
15554;DHT22;7878;44.632;10.942;2023-05-07T09:24:34;24.30;90.90
15554;DHT22;7878;44.632;10.942;2023-05-07T09:27:02;24.30;90.90
15554;DHT22;7878;44.632;10.942;2023-05-07T09:29:28;24.30;91.20
15554;DHT22;7878;44.632;10.942;2023-05-07T09:32:07;24.40;91.00
15554;DHT22;7878;44.632;10.942;2023-05-07T09:34:33;24.50;90.60
15554;DHT22;7878;44.632;10.942;2023-05-07T09:37:01;24.60;90.90
15554;DHT22;7878;44.632;10.942;2023-05-07T09:39:41;24.60;90.40
15554;DHT22;7878;44.632;10.942;2023-05-07T09:42:07;24.70;87.90
15554;DHT22;7878;44.632;10.942;2023-05-07T09:44:34;25.20;89.20
15554;DHT22;7878;44.632;10.942;2023-05-07T09:47:00;25.10;89.10
15554;DHT22;7878;44.632;10.942;2023-05-07T09:49:29;25.00;88.60
15554;DHT22;7878;44.632;10.942;2023-05-07T09:51:56;24.90;88.40
15554;DHT22;7878;44.632;10.942;2023-05-07T09:54:24;25.00;89.60
15554;DHT22;7878;44.632;10.942;2023-05-07T09:56:52;25.20;87.70
15554;DHT22;7878;44.632;10.942;2023-05-07T09:59:18;25.20;88.40
15554;DHT22;7878;44.632;10.942;2023-05-07T10:01:45;25.40;88.20
15554;DHT22;7878;44.632;10.942;2023-05-07T10:04:11;25.40;88.40
15554;DHT22;7878;44.632;10.942;2023-05-07T10:06:38;25.40;84.80
15554;DHT22;7878;44.632;10.942;2023-05-07T10:09:04;25.40;86.70
15554;DHT22;7878;44.632;10.942;2023-05-07T10:11:37;25.50;86.70
15554;DHT22;7878;44.632;10.942;2023-05-07T10:14:04;25.50;83.40
15554;DHT22;7878;44.632;10.942;2023-05-07T10:16:32;25.50;85.60
15554;DHT22;7878;44.632;10.942;2023-05-07T10:18:58;25.60;86.40
15554;DHT22;7878;44.632;10.942;2023-05-07T10:21:27;25.70;85.30
15554;DHT22;7878;44.632;10.942;2023-05-07T10:24:04;25.70;83.80
15554;DHT22;7878;44.632;10.942;2023-05-07T10:26:32;25.70;83.80
15554;DHT22;7878;44.632;10.942;2023-05-07T10:29:05;25.70;84.20
15554;DHT22;7878;44.632;10.942;2023-05-07T10:31:44;25.80;82.90
15554;DHT22;7878;44.632;10.942;2023-05-07T10:34:18;25.90;81.10
15554;DHT22;7878;44.632;10.942;2023-05-07T10:36:45;25.90;84.00
15554;DHT22;7878;44.632;10.942;2023-05-07T10:39:10;26.10;85.30
15554;DHT22;7878;44.632;10.942;2023-05-07T10:41:36;26.20;84.00
15554;DHT22;7878;44.632;10.942;2023-05-07T10:44:02;26.30;83.20
15554;DHT22;7878;44.632;10.942;2023-05-07T10:46:28;26.40;83.70
15554;DHT22;7878;44.632;10.942;2023-05-07T10:51:26;26.50;80.70
15554;DHT22;7878;44.632;10.942;2023-05-07T10:56:37;26.70;78.00
15554;DHT22;7878;44.632;10.942;2023-05-07T11:04:23;26.80;78.80
15554;DHT22;7878;44.632;10.942;2023-05-07T11:15:09;27.60;70.70
15554;DHT22;7878;44.632;10.942;2023-05-07T11:17:52;27.70;75.30
15554;DHT22;7878;44.632;10.942;2023-05-07T11:20:18;27.80;72.80
15554;DHT22;7878;44.632;10.942;2023-05-07T11:22:44;28.00;78.80
15554;DHT22;7878;44.632;10.942;2023-05-07T11:25:10;28.30;77.50
15554;DHT22;7878;44.632;10.942;2023-05-07T11:27:42;28.40;76.50
15554;DHT22;7878;44.632;10.942;2023-05-07T11:30:09;28.50;73.80
15554;DHT22;7878;44.632;10.942;2023-05-07T11:32:35;28.80;74.90
15554;DHT22;7878;44.632;10.942;2023-05-07T11:35:01;29.10;75.30
15554;DHT22;7878;44.632;10.942;2023-05-07T11:37:27;29.20;73.80
15554;DHT22;7878;44.632;10.942;2023-05-07T11:40:04;28.80;73.80
15554;DHT22;7878;44.632;10.942;2023-05-07T11:42:34;28.60;69.50
15554;DHT22;7878;44.632;10.942;2023-05-07T11:45:00;28.40;70.80
15554;DHT22;7878;44.632;10.942;2023-05-07T11:47:29;28.30;73.00
15554;DHT22;7878;44.632;10.942;2023-05-07T11:49:55;28.20;73.10
15554;DHT22;7878;44.632;10.942;2023-05-07T11:52:23;28.10;70.20
15554;DHT22;7878;44.632;10.942;2023-05-07T11:54:53;28.00;67.00
15554;DHT22;7878;44.632;10.942;2023-05-07T11:57:21;27.90;69.50
15554;DHT22;7878;44.632;10.942;2023-05-07T11:59:47;27.90;67.90
15554;DHT22;7878;44.632;10.942;2023-05-07T12:02:14;27.80;70.00
15554;DHT22;7878;44.632;10.942;2023-05-07T12:04:40;27.70;70.80
15554;DHT22;7878;44.632;10.942;2023-05-07T12:07:15;27.70;67.70
15554;DHT22;7878;44.632;10.942;2023-05-07T12:09:42;27.60;59.60
15554;DHT22;7878;44.632;10.942;2023-05-07T12:12:08;27.50;67.00
15554;DHT22;7878;44.632;10.942;2023-05-07T12:14:39;27.40;68.50
15554;DHT22;7878;44.632;10.942;2023-05-07T12:17:05;27.40;67.80
15554;DHT22;7878;44.632;10.942;2023-05-07T12:19:31;27.40;70.10
15554;DHT22;7878;44.632;10.942;2023-05-07T12:21:58;27.50;70.40
15554;DHT22;7878;44.632;10.942;2023-05-07T12:24:24;27.40;71.00
15554;DHT22;7878;44.632;10.942;2023-05-07T12:26:50;27.40;72.30
15554;DHT22;7878;44.632;10.942;2023-05-07T12:29:15;27.30;73.30
15554;DHT22;7878;44.632;10.942;2023-05-07T12:31:42;27.30;73.20
15554;DHT22;7878;44.632;10.942;2023-05-07T12:34:08;27.30;72.80
15554;DHT22;7878;44.632;10.942;2023-05-07T12:36:40;27.30;73.10
15554;DHT22;7878;44.632;10.942;2023-05-07T12:39:06;27.30;71.10
15554;DHT22;7878;44.632;10.942;2023-05-07T12:41:52;27.30;73.10
15554;DHT22;7878;44.632;10.942;2023-05-07T12:44:18;27.40;71.20
15554;DHT22;7878;44.632;10.942;2023-05-07T12:46:44;27.40;73.80
15554;DHT22;7878;44.632;10.942;2023-05-07T12:49:12;27.50;73.20
15554;DHT22;7878;44.632;10.942;2023-05-07T12:51:37;27.60;72.50
15554;DHT22;7878;44.632;10.942;2023-05-07T12:54:03;27.60;71.80
15554;DHT22;7878;44.632;10.942;2023-05-07T12:56:31;27.50;69.10
15554;DHT22;7878;44.632;10.942;2023-05-07T12:59:00;27.30;70.80
15554;DHT22;7878;44.632;10.942;2023-05-07T13:01:29;27.20;68.80
15554;DHT22;7878;44.632;10.942;2023-05-07T13:04:03;27.20;69.30
15554;DHT22;7878;44.632;10.942;2023-05-07T13:06:29;27.30;69.70
15554;DHT22;7878;44.632;10.942;2023-05-07T13:08:55;27.40;72.10
15554;DHT22;7878;44.632;10.942;2023-05-07T13:11:21;27.40;71.40
15554;DHT22;7878;44.632;10.942;2023-05-07T13:13:46;27.50;71.80
15554;DHT22;7878;44.632;10.942;2023-05-07T13:16:12;27.60;72.50
15554;DHT22;7878;44.632;10.942;2023-05-07T13:18:39;27.60;71.60
15554;DHT22;7878;44.632;10.942;2023-05-07T13:21:05;27.60;72.60
15554;DHT22;7878;44.632;10.942;2023-05-07T13:23:31;27.60;73.10
15554;DHT22;7878;44.632;10.942;2023-05-07T13:25:57;27.70;71.70
15554;DHT22;7878;44.632;10.942;2023-05-07T13:28:25;27.60;71.10
15554;DHT22;7878;44.632;10.942;2023-05-07T13:30:52;27.50;70.30
15554;DHT22;7878;44.632;10.942;2023-05-07T13:33:18;27.40;72.10
15554;DHT22;7878;44.632;10.942;2023-05-07T13:35:44;27.40;70.00
15554;DHT22;7878;44.632;10.942;2023-05-07T13:38:10;27.30;73.30
15554;DHT22;7878;44.632;10.942;2023-05-07T13:40:35;27.30;73.10
15554;DHT22;7878;44.632;10.942;2023-05-07T13:43:01;27.30;73.50
15554;DHT22;7878;44.632;10.942;2023-05-07T13:45:30;27.40;73.30
15554;DHT22;7878;44.632;10.942;2023-05-07T13:47:56;27.40;73.70
15554;DHT22;7878;44.632;10.942;2023-05-07T13:50:22;27.40;73.50
15554;DHT22;7878;44.632;10.942;2023-05-07T13:52:48;27.30;74.60
15554;DHT22;7878;44.632;10.942;2023-05-07T13:55:20;27.30;75.50
15554;DHT22;7878;44.632;10.942;2023-05-07T13:57:46;27.30;74.80
15554;DHT22;7878;44.632;10.942;2023-05-07T14:00:13;27.30;74.10
15554;DHT22;7878;44.632;10.942;2023-05-07T14:02:39;27.30;74.50
15554;DHT22;7878;44.632;10.942;2023-05-07T14:05:06;27.30;75.60
15554;DHT22;7878;44.632;10.942;2023-05-07T14:07:31;27.30;74.40
15554;DHT22;7878;44.632;10.942;2023-05-07T14:09:57;27.30;75.40
15554;DHT22;7878;44.632;10.942;2023-05-07T14:12:23;27.20;74.60
15554;DHT22;7878;44.632;10.942;2023-05-07T14:14:49;27.20;74.30
15554;DHT22;7878;44.632;10.942;2023-05-07T14:17:16;27.30;75.20
15554;DHT22;7878;44.632;10.942;2023-05-07T14:19:43;27.30;73.00
15554;DHT22;7878;44.632;10.942;2023-05-07T14:22:08;27.30;74.40
15554;DHT22;7878;44.632;10.942;2023-05-07T14:24:34;27.30;74.60
15554;DHT22;7878;44.632;10.942;2023-05-07T14:27:00;27.20;73.80
15554;DHT22;7878;44.632;10.942;2023-05-07T14:29:25;27.20;74.20
15554;DHT22;7878;44.632;10.942;2023-05-07T14:31:51;27.10;73.40
15554;DHT22;7878;44.632;10.942;2023-05-07T14:34:17;27.10;74.10
15554;DHT22;7878;44.632;10.942;2023-05-07T14:36:42;27.00;73.60
15554;DHT22;7878;44.632;10.942;2023-05-07T14:39:09;27.00;73.90
15554;DHT22;7878;44.632;10.942;2023-05-07T14:41:35;27.00;74.20
15554;DHT22;7878;44.632;10.942;2023-05-07T14:44:01;27.00;74.20
15554;DHT22;7878;44.632;10.942;2023-05-07T14:46:27;27.10;74.30
15554;DHT22;7878;44.632;10.942;2023-05-07T14:48:53;27.00;74.40
15554;DHT22;7878;44.632;10.942;2023-05-07T14:51:18;27.00;75.00
15554;DHT22;7878;44.632;10.942;2023-05-07T14:53:44;27.00;75.10
15554;DHT22;7878;44.632;10.942;2023-05-07T14:56:10;26.90;75.70
15554;DHT22;7878;44.632;10.942;2023-05-07T14:58:36;26.90;75.80
15554;DHT22;7878;44.632;10.942;2023-05-07T15:01:02;27.00;75.40
15554;DHT22;7878;44.632;10.942;2023-05-07T15:03:28;26.90;75.30
15554;DHT22;7878;44.632;10.942;2023-05-07T15:05:55;27.00;76.30
15554;DHT22;7878;44.632;10.942;2023-05-07T15:08:20;27.00;76.40
15554;DHT22;7878;44.632;10.942;2023-05-07T15:10:46;27.00;76.50
15554;DHT22;7878;44.632;10.942;2023-05-07T15:13:12;27.00;76.30
15554;DHT22;7878;44.632;10.942;2023-05-07T15:15:39;27.00;76.80
15554;DHT22;7878;44.632;10.942;2023-05-07T15:18:04;27.10;77.00
15554;DHT22;7878;44.632;10.942;2023-05-07T15:20:30;27.10;77.20
15554;DHT22;7878;44.632;10.942;2023-05-07T15:22:56;27.20;76.80
15554;DHT22;7878;44.632;10.942;2023-05-07T15:25:22;27.20;76.70
15554;DHT22;7878;44.632;10.942;2023-05-07T15:27:48;27.10;76.50
15554;DHT22;7878;44.632;10.942;2023-05-07T15:30:14;27.10;76.60
15554;DHT22;7878;44.632;10.942;2023-05-07T15:32:41;27.20;76.50
15554;DHT22;7878;44.632;10.942;2023-05-07T15:35:07;27.20;76.30
15554;DHT22;7878;44.632;10.942;2023-05-07T15:37:33;27.10;76.90
15554;DHT22;7878;44.632;10.942;2023-05-07T15:39:59;27.10;76.70
15554;DHT22;7878;44.632;10.942;2023-05-07T15:42:27;27.10;76.70
15554;DHT22;7878;44.632;10.942;2023-05-07T15:44:53;27.00;77.10